Time;durP1;ratioP1;P1;durP2;ratioP2;P2;SDS_P1;SDS_P2;PMS_P1;PMS_P2;Temp;Humidity;BMP_temperature;BMP_pressure;BME280_temperature;BME280_humidity;BME280_pressure;Samples;Min_cycle;Max_cycle;Signal;HPM_P1;HPM_P2
2024/04/16 00:00:37;;;;;;;0.90;0.60;;;6.60;99.90;;;;;;5360069;26;21128;-70
2024/04/16 00:03:07;;;;;;;0.90;0.60;;;6.70;99.90;;;;;;5353039;26;20481;-70
2024/04/16 00:05:33;;;;;;;1.23;1.10;;;6.70;99.90;;;;;;5357136;26;20481;-70
2024/04/16 00:08:02;;;;;;;0.90;0.60;;;6.70;99.90;;;;;;5357963;26;20478;-71
2024/04/16 00:10:28;;;;;;;0.90;0.60;;;6.70;99.90;;;;;;5360227;26;20481;-70
2024/04/16 00:12:56;;;;;;;1.87;1.43;;;6.70;99.90;;;;;;5363999;26;20599;-70
2024/04/16 00:15:25;;;;;;;1.10;0.80;;;6.80;99.90;;;;;;5351732;26;23059;-70
2024/04/16 00:17:54;;;;;;;0.90;0.60;;;6.70;99.90;;;;;;5362843;26;20434;-70
2024/04/16 00:20:19;;;;;;;1.40;1.00;;;6.70;99.90;;;;;;5363569;26;20563;-70
2024/04/16 00:22:48;;;;;;;0.90;0.60;;;6.60;99.90;;;;;;5355929;26;20538;-70
2024/04/16 00:25:14;;;;;;;0.90;0.60;;;6.70;99.90;;;;;;5366991;26;20891;-70
2024/04/16 00:27:42;;;;;;;1.00;0.70;;;6.70;99.90;;;;;;5354922;26;20493;-70
2024/04/16 00:30:08;;;;;;;0.90;0.60;;;6.60;99.90;;;;;;5357662;26;20458;-70
2024/04/16 00:32:39;;;;;;;0.90;0.60;;;6.60;99.90;;;;;;5341876;26;20442;-70
2024/04/16 00:35:06;;;;;;;9.73;1.60;;;6.70;99.90;;;;;;5367382;26;20562;-70
2024/04/16 00:37:34;;;;;;;1.67;0.80;;;6.70;99.90;;;;;;5345015;26;20497;-70
2024/04/16 00:40:00;;;;;;;0.90;0.70;;;6.60;99.90;;;;;;5353237;26;20623;-70
2024/04/16 00:42:28;;;;;;;0.90;0.60;;;6.60;99.90;;;;;;5348929;26;20462;-70
2024/04/16 00:44:57;;;;;;;0.90;0.60;;;6.60;99.90;;;;;;5355856;26;20365;-70
2024/04/16 00:47:26;;;;;;;0.90;0.60;;;6.60;99.90;;;;;;5349324;26;20446;-70
2024/04/16 00:49:54;;;;;;;1.57;1.33;;;6.60;99.90;;;;;;5359373;26;20482;-70
2024/04/16 00:52:23;;;;;;;0.90;0.60;;;6.60;99.90;;;;;;5352881;26;20484;-69
2024/04/16 00:54:49;;;;;;;0.90;0.70;;;6.60;99.90;;;;;;5360018;26;20466;-70
2024/04/16 00:57:17;;;;;;;0.97;0.77;;;6.60;99.90;;;;;;5364408;26;21010;-70
2024/04/16 00:59:46;;;;;;;0.90;0.60;;;6.60;99.90;;;;;;5352052;26;20572;-70
2024/04/16 01:02:14;;;;;;;0.93;0.83;;;6.50;99.90;;;;;;5342556;26;20500;-69
2024/04/16 01:04:40;;;;;;;0.90;0.60;;;6.50;99.90;;;;;;5354486;26;20457;-69
2024/04/16 01:07:11;;;;;;;0.90;0.60;;;6.60;99.90;;;;;;5363514;26;20466;-70
2024/04/16 01:09:37;;;;;;;0.90;0.60;;;6.70;99.90;;;;;;5359204;26;20275;-70
2024/04/16 01:12:06;;;;;;;1.40;1.00;;;6.70;99.90;;;;;;5357413;26;21040;-71
2024/04/16 01:14:32;;;;;;;1.10;0.73;;;6.70;99.90;;;;;;5355599;26;20244;-70
2024/04/16 01:17:00;;;;;;;0.90;0.60;;;6.60;99.90;;;;;;5358378;26;20556;-70
2024/04/16 01:19:26;;;;;;;0.90;0.60;;;6.50;99.90;;;;;;5354423;26;20278;-70
2024/04/16 01:21:55;;;;;;;0.90;0.60;;;6.60;99.90;;;;;;5356171;26;20450;-70
2024/04/16 01:24:23;;;;;;;1.03;0.87;;;6.60;99.90;;;;;;5353426;26;20411;-70
2024/04/16 01:26:52;;;;;;;1.10;0.80;;;6.70;99.90;;;;;;5346345;26;20545;-70
2024/04/16 01:29:18;;;;;;;0.90;0.60;;;6.60;99.90;;;;;;5351409;26;20549;-69
2024/04/16 01:31:46;;;;;;;0.90;0.60;;;6.50;99.90;;;;;;5356664;26;20918;-69
2024/04/16 01:34:12;;;;;;;0.90;0.60;;;6.40;99.90;;;;;;5357500;26;20319;-70
2024/04/16 01:36:40;;;;;;;0.90;0.60;;;6.50;99.90;;;;;;5357045;26;20516;-70
2024/04/16 01:39:06;;;;;;;0.90;0.60;;;6.60;99.90;;;;;;5361331;26;20260;-70
2024/04/16 01:41:37;;;;;;;1.70;1.33;;;6.60;99.90;;;;;;5347696;26;20593;-70
2024/04/16 01:44:03;;;;;;;0.90;0.60;;;6.60;99.90;;;;;;5349662;26;20525;-70
2024/04/16 01:46:32;;;;;;;1.00;0.70;;;6.50;99.90;;;;;;5359917;26;20558;-70
2024/04/16 01:48:58;;;;;;;1.27;0.70;;;6.50;99.90;;;;;;5353997;26;20490;-70
2024/04/16 01:51:26;;;;;;;1.63;1.50;;;6.40;99.90;;;;;;5362373;26;21102;-69
2024/04/16 01:53:52;;;;;;;0.90;0.60;;;6.40;99.90;;;;;;5359553;26;20387;-69
2024/04/16 01:56:20;;;;;;;1.00;0.77;;;6.40;99.90;;;;;;5353471;26;20559;-69
2024/04/16 01:58:48;;;;;;;0.90;0.70;;;6.40;99.90;;;;;;5358957;26;20321;-69
2024/04/16 02:01:18;;;;;;;1.10;1.00;;;6.50;99.90;;;;;;5354653;26;21124;-69
2024/04/16 02:03:43;;;;;;;0.90;0.60;;;6.50;99.90;;;;;;5354678;26;20450;-69
2024/04/16 02:06:12;;;;;;;1.73;1.63;;;6.50;99.90;;;;;;5354003;26;20745;-69
2024/04/16 02:08:38;;;;;;;0.90;0.60;;;6.50;99.90;;;;;;5354135;26;20556;-71
2024/04/16 02:11:06;;;;;;;1.17;1.07;;;6.50;99.90;;;;;;5354717;26;20446;-69
2024/04/16 02:13:32;;;;;;;0.90;0.80;;;6.60;99.90;;;;;;5356896;26;20447;-70
2024/04/16 02:16:03;;;;;;;1.10;1.00;;;6.50;99.90;;;;;;5350074;26;21064;-70
2024/04/16 02:18:29;;;;;;;1.73;1.37;;;6.60;99.90;;;;;;5352398;26;20371;-70
2024/04/16 02:20:57;;;;;;;0.90;0.60;;;6.50;99.90;;;;;;5363257;26;20857;-70
2024/04/16 02:23:23;;;;;;;0.90;0.70;;;6.50;99.90;;;;;;5361221;26;21068;-69
2024/04/16 02:25:54;;;;;;;0.90;0.60;;;6.60;99.90;;;;;;5355043;26;20490;-70
2024/04/16 02:28:20;;;;;;;1.60;1.50;;;6.50;99.90;;;;;;5351133;26;20235;-69
2024/04/16 02:30:48;;;;;;;0.90;0.60;;;6.50;99.90;;;;;;5358613;26;20508;-70
2024/04/16 02:33:19;;;;;;;1.00;0.80;;;6.50;99.90;;;;;;5352833;26;20256;-70
2024/04/16 02:35:47;;;;;;;0.90;0.60;;;6.40;99.90;;;;;;5355991;26;20710;-71
2024/04/16 02:38:14;;;;;;;0.90;0.60;;;6.50;99.90;;;;;;5362604;26;20434;-70
2024/04/16 02:40:44;;;;;;;0.90;0.70;;;6.50;99.90;;;;;;5359500;26;20599;-70
2024/04/16 02:43:10;;;;;;;0.90;0.70;;;6.40;99.90;;;;;;5355757;26;20490;-70
2024/04/16 02:45:39;;;;;;;1.00;0.70;;;6.40;99.90;;;;;;5352786;26;20583;-70
2024/04/16 02:48:05;;;;;;;0.90;0.60;;;6.40;99.90;;;;;;5349510;26;20448;-70
2024/04/16 02:50:36;;;;;;;0.90;0.70;;;6.40;99.90;;;;;;5359589;26;20477;-70
2024/04/16 02:53:02;;;;;;;1.00;0.70;;;6.40;99.90;;;;;;5362680;26;20780;-71
2024/04/16 02:55:30;;;;;;;0.90;0.60;;;6.50;99.90;;;;;;5360997;26;20529;-70
2024/04/16 02:57:56;;;;;;;0.90;0.60;;;6.60;99.90;;;;;;5355697;26;20409;-70
2024/04/16 03:00:25;;;;;;;0.90;0.67;;;6.70;99.90;;;;;;5346425;26;20469;-69
2024/04/16 03:02:50;;;;;;;2.40;1.00;;;6.70;99.90;;;;;;5347626;26;20618;-70
2024/04/16 03:05:19;;;;;;;0.90;0.60;;;6.70;99.90;;;;;;5355611;26;20446;-69
2024/04/16 03:07:49;;;;;;;1.00;0.70;;;6.70;99.90;;;;;;5356292;26;20999;-70
2024/04/16 03:10:18;;;;;;;0.90;0.60;;;6.70;99.90;;;;;;5348138;26;20477;-70
2024/04/16 03:12:44;;;;;;;0.90;0.60;;;6.70;99.90;;;;;;5346838;26;20475;-71
2024/04/16 03:15:12;;;;;;;0.90;0.60;;;6.70;99.90;;;;;;5355434;26;20450;-70
2024/04/16 03:17:38;;;;;;;0.90;0.60;;;6.60;99.90;;;;;;5344202;26;20566;-70
2024/04/16 03:20:08;;;;;;;1.33;1.23;;;6.60;99.90;;;;;;5358069;26;20458;-70
2024/04/16 03:22:34;;;;;;;1.00;0.80;;;6.40;99.90;;;;;;5354144;26;20465;-70
2024/04/16 03:25:06;;;;;;;3.33;2.00;;;6.30;99.90;;;;;;5347598;26;20620;-70
2024/04/16 03:27:32;;;;;;;1.10;0.80;;;6.10;99.90;;;;;;5353046;26;20278;-69
2024/04/16 03:30:00;;;;;;;1.20;1.10;;;6.10;99.90;;;;;;5350794;26;22578;-69
2024/04/16 03:32:27;;;;;;;5.77;1.20;;;6.10;99.90;;;;;;5350230;26;20368;-71
2024/04/16 03:34:55;;;;;;;0.90;0.60;;;6.00;99.90;;;;;;5575587;21;20500;-72
2024/04/16 03:37:24;;;;;;;0.90;0.60;;;5.90;99.90;;;;;;5386427;26;20456;-72
2024/04/16 03:39:53;;;;;;;1.00;0.80;;;5.90;99.90;;;;;;5371755;26;20478;-73
2024/04/16 03:42:24;;;;;;;0.90;0.60;;;5.90;99.90;;;;;;5378895;26;20691;-72
2024/04/16 03:44:52;;;;;;;0.90;0.70;;;5.90;99.90;;;;;;5380549;26;21331;-69
2024/04/16 03:47:21;;;;;;;1.20;0.90;;;5.90;99.90;;;;;;5370080;26;20630;-69
2024/04/16 03:49:47;;;;;;;1.00;0.90;;;5.80;99.90;;;;;;5390896;26;20540;-70
2024/04/16 03:52:15;;;;;;;1.00;0.80;;;5.80;99.90;;;;;;5383762;26;20530;-70
2024/04/16 03:54:43;;;;;;;0.90;0.60;;;5.80;99.90;;;;;;5377308;26;20600;-70
2024/04/16 03:57:12;;;;;;;2.50;1.90;;;5.80;99.90;;;;;;5393186;26;20500;-71
2024/04/16 04:02:23;;;;;;;0.90;0.60;;;5.80;99.90;;;;;;5387481;26;20533;-69
2024/04/16 04:04:52;;;;;;;3.63;1.73;;;5.80;99.90;;;;;;5397513;26;20565;-70
2024/04/16 04:07:18;;;;;;;0.90;0.70;;;5.90;99.90;;;;;;5380359;26;20477;-71
2024/04/16 04:09:47;;;;;;;0.90;0.60;;;5.80;99.90;;;;;;5384063;26;20493;-70
2024/04/16 04:12:13;;;;;;;0.90;0.60;;;5.80;99.90;;;;;;5380748;26;20347;-70
2024/04/16 04:14:44;;;;;;;1.00;0.73;;;5.80;99.90;;;;;;5381870;26;20462;-71
2024/04/16 04:17:10;;;;;;;1.00;0.70;;;5.80;99.90;;;;;;5386748;26;20616;-70
2024/04/16 04:19:38;;;;;;;1.00;0.80;;;5.80;99.90;;;;;;5388213;26;21026;-70
2024/04/16 04:22:04;;;;;;;0.90;0.60;;;5.80;99.90;;;;;;5392765;26;20250;-70
2024/04/16 04:24:33;;;;;;;1.50;1.27;;;5.80;99.90;;;;;;5377789;26;20571;-72
2024/04/16 04:26:59;;;;;;;0.90;0.60;;;5.80;99.90;;;;;;5382672;26;20470;-71
2024/04/16 04:29:29;;;;;;;0.90;0.60;;;5.80;99.90;;;;;;5395665;26;20440;-70
2024/04/16 04:31:58;;;;;;;1.00;0.70;;;5.80;99.90;;;;;;5386065;26;20422;-70
2024/04/16 04:34:27;;;;;;;1.00;0.77;;;5.90;99.90;;;;;;5395039;26;20445;-70
2024/04/16 04:36:53;;;;;;;1.90;1.80;;;5.90;99.90;;;;;;5384495;26;20562;-71
2024/04/16 04:39:21;;;;;;;2.47;2.27;;;5.90;99.90;;;;;;5390723;26;20585;-70
2024/04/16 04:41:47;;;;;;;1.30;1.20;;;6.00;99.90;;;;;;5395447;26;20306;-70
2024/04/16 04:44:18;;;;;;;1.00;0.70;;;6.00;99.90;;;;;;5383386;26;20600;-70
2024/04/16 04:46:44;;;;;;;1.00;0.87;;;5.90;99.90;;;;;;5383247;26;20383;-70
2024/04/16 04:49:15;;;;;;;0.90;0.60;;;5.90;99.90;;;;;;5392493;26;20460;-70
2024/04/16 04:51:41;;;;;;;1.50;1.20;;;5.90;99.90;;;;;;5391037;26;20250;-70
2024/04/16 04:54:09;;;;;;;1.77;1.67;;;6.00;99.90;;;;;;5386340;26;20910;-70
2024/04/16 04:56:35;;;;;;;2.67;1.17;;;6.00;99.90;;;;;;5392621;26;20572;-70
2024/04/16 04:59:03;;;;;;;5.63;1.60;;;6.10;99.90;;;;;;5382159;26;20474;-71
2024/04/16 05:01:29;;;;;;;0.90;0.70;;;6.10;99.90;;;;;;5397994;26;20307;-70
2024/04/16 05:03:57;;;;;;;1.90;1.33;;;6.10;99.90;;;;;;5382751;26;20448;-70
2024/04/16 05:06:26;;;;;;;0.90;0.60;;;6.30;99.90;;;;;;5391928;26;20514;-70
2024/04/16 05:08:54;;;;;;;1.00;0.80;;;6.30;99.90;;;;;;5398901;26;20547;-70
2024/04/16 05:11:20;;;;;;;1.70;1.53;;;6.30;99.90;;;;;;5392213;26;20554;-71
2024/04/16 05:13:48;;;;;;;1.10;0.80;;;6.30;99.90;;;;;;5394303;26;20630;-69
2024/04/16 05:16:14;;;;;;;1.10;1.00;;;6.40;99.90;;;;;;5401684;26;20239;-70
2024/04/16 05:18:43;;;;;;;0.90;0.70;;;6.30;99.90;;;;;;5384935;26;20469;-70
2024/04/16 05:21:10;;;;;;;0.90;0.60;;;6.30;99.90;;;;;;5383204;26;20267;-69
2024/04/16 05:23:41;;;;;;;0.90;0.60;;;6.30;99.90;;;;;;5372606;26;20685;-69
2024/04/16 05:26:07;;;;;;;0.90;0.60;;;6.30;99.90;;;;;;5375928;26;21055;-70
2024/04/16 05:28:35;;;;;;;0.90;0.60;;;6.30;99.90;;;;;;5379966;26;20544;-70
2024/04/16 05:31:01;;;;;;;5.07;1.30;;;6.40;99.90;;;;;;5392808;26;21025;-70
2024/04/16 05:33:30;;;;;;;2.00;1.60;;;6.40;99.90;;;;;;5375030;26;20529;-70
2024/04/16 05:35:55;;;;;;;5.13;2.57;;;6.30;99.90;;;;;;5387991;26;20246;-70
2024/04/16 05:38:24;;;;;;;0.90;0.60;;;6.40;99.90;;;;;;5382892;26;20568;-70
2024/04/16 05:40:52;;;;;;;1.40;1.00;;;6.50;99.90;;;;;;5378606;26;20547;-72
2024/04/16 05:43:21;;;;;;;0.90;0.60;;;6.50;99.90;;;;;;5387451;26;21006;-71
2024/04/16 05:45:46;;;;;;;1.30;0.97;;;6.50;99.90;;;;;;5387723;26;20474;-71
2024/04/16 05:48:15;;;;;;;0.90;0.60;;;6.70;99.90;;;;;;5387871;26;20539;-71
2024/04/16 05:50:41;;;;;;;0.90;0.60;;;6.70;99.90;;;;;;5392827;26;20341;-72
2024/04/16 05:53:09;;;;;;;1.37;0.97;;;6.80;99.90;;;;;;5380845;26;20445;-72
2024/04/16 05:55:35;;;;;;;1.10;0.80;;;7.00;99.90;;;;;;5388889;26;20457;-72
2024/04/16 05:58:08;;;;;;;1.10;0.90;;;7.10;99.90;;;;;;5382253;26;20473;-72
2024/04/16 06:00:36;;;;;;;1.00;0.80;;;7.00;99.90;;;;;;5390308;26;20748;-72
2024/04/16 06:03:06;;;;;;;0.90;0.60;;;7.00;99.90;;;;;;5392148;26;20453;-70
2024/04/16 06:05:32;;;;;;;0.90;0.60;;;7.00;99.90;;;;;;5379276;26;20555;-70
2024/04/16 06:08:01;;;;;;;1.30;1.20;;;7.00;99.90;;;;;;5374927;26;20446;-69
2024/04/16 06:10:26;;;;;;;3.63;1.63;;;7.10;99.90;;;;;;5386107;26;20278;-70
2024/04/16 06:12:55;;;;;;;1.00;0.90;;;7.10;99.90;;;;;;5394706;26;20985;-70
2024/04/16 06:15:23;;;;;;;1.20;1.00;;;7.10;99.90;;;;;;5395187;26;20295;-70
2024/04/16 06:17:52;;;;;;;0.90;0.60;;;7.10;99.90;;;;;;5394865;26;21280;-70
2024/04/16 06:20:17;;;;;;;0.90;0.70;;;7.00;99.90;;;;;;5384196;26;20496;-70
2024/04/16 06:22:48;;;;;;;0.90;0.60;;;6.90;99.90;;;;;;5384295;26;20528;-70
2024/04/16 06:25:14;;;;;;;0.90;0.60;;;6.90;99.90;;;;;;5391980;26;20521;-69
2024/04/16 06:27:43;;;;;;;1.83;1.10;;;6.80;99.90;;;;;;5387697;26;20573;-70
2024/04/16 06:30:09;;;;;;;0.90;0.60;;;6.90;99.90;;;;;;5399592;26;20290;-71
2024/04/16 06:32:40;;;;;;;1.43;1.33;;;6.80;99.90;;;;;;5377653;26;20461;-71
2024/04/16 06:35:06;;;;;;;6.10;1.63;;;6.80;99.90;;;;;;5388016;26;20454;-71
2024/04/16 06:37:35;;;;;;;4.00;1.70;;;6.80;99.90;;;;;;5383289;26;20942;-72
2024/04/16 06:40:00;;;;;;;0.90;0.70;;;6.70;99.90;;;;;;5390086;26;20882;-72
2024/04/16 06:42:29;;;;;;;0.90;0.60;;;6.60;99.90;;;;;;5388128;26;20552;-72
2024/04/16 06:44:55;;;;;;;1.00;0.80;;;6.60;99.90;;;;;;5380949;26;20689;-71
2024/04/16 06:47:24;;;;;;;1.17;0.80;;;6.50;99.90;;;;;;5389022;26;20569;-71
2024/04/16 06:49:52;;;;;;;1.57;1.47;;;6.40;99.90;;;;;;5382142;26;20324;-71
2024/04/16 06:52:20;;;;;;;0.90;0.60;;;6.30;99.90;;;;;;5383537;26;20650;-70
2024/04/16 06:54:47;;;;;;;0.90;0.60;;;6.30;99.90;;;;;;5383893;26;21045;-71
2024/04/16 06:57:16;;;;;;;3.27;1.47;;;6.30;99.90;;;;;;5387091;26;20467;-70
2024/04/16 06:59:42;;;;;;;0.90;0.70;;;6.30;99.90;;;;;;5386245;26;20532;-69
2024/04/16 07:02:10;;;;;;;1.10;0.80;;;6.40;99.90;;;;;;5377346;26;20535;-71
2024/04/16 07:04:36;;;;;;;2.37;2.17;;;6.20;99.90;;;;;;5391076;26;20518;-71
2024/04/16 07:07:07;;;;;;;0.90;0.60;;;6.10;99.90;;;;;;5375224;26;20915;-71
2024/04/16 07:09:33;;;;;;;1.13;1.03;;;5.90;99.90;;;;;;5389584;26;20382;-70
2024/04/16 07:12:02;;;;;;;1.10;0.90;;;5.90;99.90;;;;;;5391684;26;20465;-71
2024/04/16 07:14:27;;;;;;;1.23;0.90;;;5.80;99.90;;;;;;5388625;26;20340;-71
2024/04/16 07:16:56;;;;;;;1.33;1.20;;;5.80;99.90;;;;;;5385849;26;20480;-72
2024/04/16 07:19:21;;;;;;;1.87;1.30;;;5.90;99.90;;;;;;5368194;26;20240;-71
2024/04/16 07:21:50;;;;;;;0.90;0.60;;;5.80;99.90;;;;;;5377473;26;20588;-71
2024/04/16 07:24:18;;;;;;;1.00;0.90;;;5.80;99.90;;;;;;5389080;26;20636;-71
2024/04/16 07:26:47;;;;;;;32.33;1.73;;;5.80;99.90;;;;;;5385172;26;20541;-71
2024/04/16 07:29:13;;;;;;;2.50;1.10;;;5.90;99.90;;;;;;5400692;26;20839;-71
2024/04/16 07:31:41;;;;;;;1.30;1.03;;;5.90;99.90;;;;;;5391116;26;20511;-72
2024/04/16 07:34:07;;;;;;;3.37;1.13;;;5.90;99.90;;;;;;5391498;26;20238;-71
2024/04/16 07:36:35;;;;;;;1.20;0.97;;;5.80;99.90;;;;;;5394833;26;20769;-71
2024/04/16 07:39:01;;;;;;;1.40;1.30;;;5.70;99.90;;;;;;5366869;26;20586;-72
2024/04/16 07:41:32;;;;;;;1.30;0.90;;;5.80;99.90;;;;;;5388876;26;20466;-70
2024/04/16 07:43:58;;;;;;;1.03;0.80;;;5.70;99.90;;;;;;5379329;26;20469;-72
2024/04/16 07:46:27;;;;;;;1.00;0.90;;;5.60;99.90;;;;;;5386344;26;20438;-72
2024/04/16 07:48:55;;;;;;;1.43;0.80;;;5.60;99.90;;;;;;5376098;26;20239;-71
2024/04/16 07:51:21;;;;;;;1.40;0.73;;;5.60;99.90;;;;;;5384545;26;25061;-70
2024/04/16 07:53:49;;;;;;;1.43;1.10;;;5.70;99.90;;;;;;5382437;26;20454;-70
2024/04/16 07:56:16;;;;;;;1.00;0.70;;;5.80;99.90;;;;;;5393385;26;20367;-70
2024/04/16 07:58:47;;;;;;;1.37;0.90;;;5.90;99.90;;;;;;5386818;26;20457;-71
2024/04/16 08:01:14;;;;;;;1.00;0.73;;;5.90;99.90;;;;;;5383508;26;20606;-70
2024/04/16 08:03:42;;;;;;;2.33;1.57;;;5.80;99.90;;;;;;5381174;26;20543;-70
2024/04/16 08:06:10;;;;;;;1.73;0.80;;;5.90;99.90;;;;;;5375869;26;20606;-72
2024/04/16 08:08:38;;;;;;;1.67;1.37;;;6.00;99.90;;;;;;5387523;26;20485;-71
2024/04/16 08:11:08;;;;;;;1.73;1.10;;;5.90;99.90;;;;;;5367476;26;20615;-70
2024/04/16 08:13:36;;;;;;;3.60;1.20;;;6.00;99.90;;;;;;5392176;26;21133;-70
2024/04/16 08:16:06;;;;;;;0.90;0.70;;;6.10;99.90;;;;;;5385957;26;20464;-70
2024/04/16 08:18:34;;;;;;;1.60;1.07;;;6.10;99.90;;;;;;5384663;26;20460;-70
2024/04/16 08:21:00;;;;;;;1.13;1.03;;;6.20;99.90;;;;;;5384791;26;20470;-69
2024/04/16 08:23:29;;;;;;;1.20;1.00;;;6.20;99.90;;;;;;5382243;26;20833;-69
2024/04/16 08:25:58;;;;;;;1.73;1.23;;;6.30;99.90;;;;;;5382790;26;20340;-70
2024/04/16 08:28:26;;;;;;;2.33;1.30;;;6.40;99.90;;;;;;5380113;26;22164;-71
2024/04/16 08:30:53;;;;;;;3.43;2.60;;;6.50;99.90;;;;;;5393665;26;20467;-70
2024/04/16 08:33:24;;;;;;;2.07;1.03;;;6.60;99.90;;;;;;5385058;26;20776;-72
2024/04/16 08:35:51;;;;;;;1.27;1.17;;;6.80;99.90;;;;;;5379704;26;20535;-71
2024/04/16 08:38:20;;;;;;;3.83;2.40;;;6.90;99.90;;;;;;5378528;26;20477;-70
2024/04/16 08:40:46;;;;;;;5.13;3.23;;;7.10;99.90;;;;;;5394127;26;20611;-70
2024/04/16 08:43:15;;;;;;;5.33;4.00;;;7.20;99.90;;;;;;5392302;26;20460;-71
2024/04/16 08:45:43;;;;;;;2.83;2.40;;;7.30;99.90;;;;;;5392561;26;20231;-70
2024/04/16 08:48:12;;;;;;;4.20;2.90;;;7.30;99.90;;;;;;5398577;26;20538;-70
2024/04/16 08:50:42;;;;;;;1.40;1.00;;;7.30;99.90;;;;;;5393205;26;20557;-71
2024/04/16 08:53:11;;;;;;;1.77;1.67;;;7.40;99.90;;;;;;5383519;26;20554;-70
2024/04/16 08:55:40;;;;;;;5.20;3.57;;;7.50;99.90;;;;;;5389106;26;20445;-71
2024/04/16 08:58:09;;;;;;;9.80;3.10;;;7.60;99.90;;;;;;5401920;26;20519;-71
2024/04/16 09:00:35;;;;;;;4.83;3.37;;;7.70;99.90;;;;;;5396964;26;20686;-71
2024/04/16 09:03:03;;;;;;;6.30;3.90;;;7.90;99.90;;;;;;5376944;26;20450;-71
2024/04/16 09:05:29;;;;;;;5.70;3.40;;;7.90;99.90;;;;;;5390022;26;20601;-70
2024/04/16 09:08:00;;;;;;;4.63;3.43;;;7.90;99.90;;;;;;5385532;26;20509;-71
2024/04/16 09:10:26;;;;;;;9.77;3.50;;;8.10;99.90;;;;;;5384016;26;20557;-71
2024/04/16 09:12:55;;;;;;;2.90;1.80;;;8.10;99.90;;;;;;5392828;26;20698;-71
2024/04/16 09:15:21;;;;;;;2.50;2.23;;;8.00;99.90;;;;;;5380526;26;20262;-73
2024/04/16 09:17:50;;;;;;;2.70;2.30;;;7.90;99.90;;;;;;5393273;26;20482;-71
2024/04/16 09:20:17;;;;;;;3.37;2.70;;;8.10;99.90;;;;;;5383088;26;20498;-71
2024/04/16 09:22:45;;;;;;;3.40;2.50;;;8.20;99.90;;;;;;5378387;26;20506;-71
2024/04/16 09:25:14;;;;;;;4.90;2.43;;;8.20;99.90;;;;;;5402981;26;20594;-71
2024/04/16 09:27:42;;;;;;;2.87;1.70;;;8.40;99.90;;;;;;5399651;26;20668;-72
2024/04/16 09:30:10;;;;;;;4.63;2.20;;;8.50;99.90;;;;;;5400310;26;20452;-72
2024/04/16 09:32:38;;;;;;;2.80;1.73;;;8.80;99.90;;;;;;5383087;26;20708;-72
2024/04/16 09:35:05;;;;;;;1.37;1.10;;;9.10;99.90;;;;;;5408060;26;20528;-72
2024/04/16 09:37:34;;;;;;;2.33;1.63;;;9.30;99.90;;;;;;5383389;26;20500;-72
2024/04/16 09:40:00;;;;;;;5.97;1.53;;;9.40;99.90;;;;;;5393996;26;20448;-72
2024/04/16 09:42:31;;;;;;;1.10;0.83;;;9.60;99.90;;;;;;5392319;26;20449;-72
2024/04/16 09:44:58;;;;;;;2.40;1.70;;;9.60;99.90;;;;;;5392892;26;20649;-71
2024/04/16 09:47:28;;;;;;;4.50;1.80;;;9.70;99.90;;;;;;5383405;26;20538;-73
2024/04/16 09:49:56;;;;;;;5.90;1.90;;;9.90;99.90;;;;;;5393232;26;20604;-73
2024/04/16 09:52:25;;;;;;;5.00;1.50;;;10.00;99.90;;;;;;5399272;26;20448;-73
2024/04/16 09:54:52;;;;;;;1.10;1.00;;;10.10;99.90;;;;;;5390203;26;20566;-72
2024/04/16 09:57:21;;;;;;;2.07;1.37;;;10.00;99.90;;;;;;5387192;26;20480;-73
2024/04/16 09:59:52;;;;;;;5.00;2.07;;;10.20;99.90;;;;;;5386025;26;20460;-71
2024/04/16 10:02:23;;;;;;;9.43;1.60;;;10.80;99.90;;;;;;5382992;26;20986;-70
2024/04/16 10:04:50;;;;;;;2.70;1.10;;;11.40;99.90;;;;;;5396705;26;20529;-70
2024/04/16 10:07:19;;;;;;;9.03;1.57;;;11.60;99.90;;;;;;5380968;26;20849;-70
2024/04/16 10:09:45;;;;;;;5.43;1.50;;;12.40;99.90;;;;;;5380160;26;20608;-70
2024/04/16 10:12:14;;;;;;;5.43;1.10;;;12.90;99.90;;;;;;5387391;26;20476;-70
2024/04/16 10:14:40;;;;;;;1.23;1.13;;;12.90;99.90;;;;;;5376412;26;20473;-70
2024/04/16 10:17:14;;;;;;;1.10;0.90;;;13.10;99.90;;;;;;5388675;26;20532;-69
2024/04/16 10:19:40;;;;;;;2.20;1.53;;;13.40;99.90;;;;;;5385537;26;20531;-70
2024/04/16 10:22:14;;;;;;;2.50;1.20;;;13.40;99.90;;;;;;5393888;26;21111;-70
2024/04/16 10:24:50;;;;;;;2.20;0.80;;;12.90;99.90;;;;;;5386631;26;20236;-70
2024/04/16 10:27:19;;;;;;;7.33;1.30;;;12.80;99.90;;;;;;5392059;26;20464;-72
2024/04/16 10:29:45;;;;;;;5.33;1.20;;;12.50;99.90;;;;;;5388248;26;20919;-71
2024/04/16 10:32:16;;;;;;;2.43;1.30;;;12.70;99.90;;;;;;5391616;26;20529;-72
2024/04/16 10:34:42;;;;;;;2.27;1.37;;;12.50;99.90;;;;;;5384620;26;20285;-73
2024/04/16 10:37:11;;;;;;;1.70;1.43;;;12.30;99.90;;;;;;5389693;26;20519;-72
2024/04/16 10:39:36;;;;;;;2.70;1.30;;;12.00;99.90;;;;;;5385343;26;20556;-73
2024/04/16 10:42:06;;;;;;;2.60;1.27;;;11.70;99.90;;;;;;5394438;26;20579;-72
2024/04/16 10:44:33;;;;;;;7.73;1.60;;;11.50;99.90;;;;;;5389427;26;20305;-70
2024/04/16 10:47:03;;;;;;;2.23;1.10;;;11.40;99.90;;;;;;5388460;26;20598;-70
2024/04/16 10:49:33;;;;;;;2.07;1.00;;;11.10;99.90;;;;;;5382311;26;20532;-71
2024/04/16 10:52:12;;;;;;;0.90;0.70;;;10.90;99.90;;;;;;5388450;26;20598;-71
2024/04/16 10:54:38;;;;;;;1.00;0.70;;;10.90;99.90;;;;;;5382721;26;21044;-69
2024/04/16 10:57:07;;;;;;;1.10;0.90;;;10.90;99.90;;;;;;5394018;26;20476;-70
2024/04/16 10:59:33;;;;;;;3.83;1.20;;;10.90;99.90;;;;;;5389241;26;20238;-71
2024/04/16 11:02:01;;;;;;;7.63;1.27;;;10.70;99.90;;;;;;5390946;26;20552;-70
2024/04/16 11:04:29;;;;;;;2.90;1.17;;;10.80;99.90;;;;;;5382787;26;20548;-69
2024/04/16 11:07:00;;;;;;;1.00;0.77;;;11.00;99.90;;;;;;5377504;26;20548;-70
2024/04/16 11:09:26;;;;;;;1.30;1.07;;;10.80;99.90;;;;;;5391842;26;20859;-71
2024/04/16 11:11:55;;;;;;;1.43;0.80;;;10.90;99.90;;;;;;5390802;26;20580;-70
2024/04/16 11:14:21;;;;;;;1.70;0.87;;;11.00;99.90;;;;;;5388929;26;20605;-71
2024/04/16 11:16:50;;;;;;;1.67;1.50;;;11.70;99.90;;;;;;5384747;26;20474;-72
2024/04/16 11:19:17;;;;;;;1.00;0.70;;;13.00;99.90;;;;;;5390876;26;20580;-74
2024/04/16 11:21:46;;;;;;;1.30;1.00;;;13.40;99.90;;;;;;5380793;26;20442;-73
2024/04/16 11:24:14;;;;;;;1.47;0.87;;;14.20;99.90;;;;;;5395796;26;21052;-72
2024/04/16 11:26:43;;;;;;;1.20;0.80;;;14.40;99.90;;;;;;5388279;26;20565;-72
2024/04/16 11:29:09;;;;;;;1.20;0.90;;;14.60;99.90;;;;;;5397565;26;20813;-72
2024/04/16 11:31:39;;;;;;;1.00;0.80;;;14.50;99.90;;;;;;5391846;26;20465;-73
2024/04/16 11:34:05;;;;;;;1.60;0.87;;;13.60;99.90;;;;;;5383175;26;22227;-72
2024/04/16 11:36:34;;;;;;;1.20;0.93;;;13.00;99.90;;;;;;5383315;26;20958;-73
2024/04/16 11:39:00;;;;;;;1.10;0.87;;;13.20;99.90;;;;;;5386318;26;20795;-73
2024/04/16 11:41:31;;;;;;;1.40;0.90;;;13.60;99.90;;;;;;5390884;26;20510;-73
2024/04/16 11:43:57;;;;;;;5.90;1.47;;;13.70;99.90;;;;;;5382666;26;21120;-74
2024/04/16 11:46:25;;;;;;;2.03;1.10;;;13.70;99.90;;;;;;5396087;26;20473;-73
2024/04/16 11:48:52;;;;;;;4.70;1.00;;;14.30;99.90;;;;;;5394927;26;20382;-74
2024/04/16 11:51:20;;;;;;;3.03;1.00;;;14.30;99.90;;;;;;5390786;26;20551;-73
2024/04/16 11:53:46;;;;;;;1.27;0.90;;;13.70;99.90;;;;;;5394498;26;20583;-72
2024/04/16 11:56:15;;;;;;;1.13;0.80;;;13.40;99.90;;;;;;5397267;26;20533;-71
2024/04/16 11:58:43;;;;;;;1.10;0.80;;;12.90;99.90;;;;;;5389139;26;20470;-73
2024/04/16 12:01:12;;;;;;;1.20;0.90;;;13.20;99.90;;;;;;5389313;26;20480;-73
2024/04/16 12:03:38;;;;;;;1.73;0.90;;;14.20;99.90;;;;;;5384564;26;20557;-73
2024/04/16 12:06:07;;;;;;;1.60;0.80;;;14.60;99.90;;;;;;5382499;26;20480;-74
2024/04/16 12:08:33;;;;;;;3.80;0.83;;;14.90;99.90;;;;;;5389812;26;20973;-72
2024/04/16 12:11:02;;;;;;;1.00;0.80;;;15.20;99.90;;;;;;5393592;26;20569;-72
2024/04/16 12:13:28;;;;;;;1.30;0.90;;;14.80;99.90;;;;;;5384219;26;20352;-73
2024/04/16 12:15:59;;;;;;;3.60;1.17;;;14.50;99.90;;;;;;5384123;26;20527;-72
2024/04/16 12:18:24;;;;;;;1.20;0.90;;;13.80;99.90;;;;;;5374083;26;20355;-72
2024/04/16 12:20:53;;;;;;;1.00;0.70;;;13.60;99.90;;;;;;5388418;26;20489;-69
2024/04/16 12:23:19;;;;;;;1.70;1.07;;;13.20;99.90;;;;;;5389797;26;20306;-72
2024/04/16 12:25:48;;;;;;;1.17;0.87;;;13.10;99.90;;;;;;5394224;26;20747;-71
2024/04/16 12:28:14;;;;;;;1.20;0.80;;;13.00;99.90;;;;;;5397512;26;20249;-70
2024/04/16 12:30:42;;;;;;;1.07;0.80;;;13.00;99.90;;;;;;5395043;26;20617;-71
2024/04/16 12:33:10;;;;;;;1.10;0.87;;;12.80;99.90;;;;;;5393512;26;20247;-70
2024/04/16 12:35:39;;;;;;;2.30;1.67;;;12.50;99.90;;;;;;5377376;26;20531;-70
2024/04/16 12:38:05;;;;;;;1.10;0.80;;;12.60;99.90;;;;;;5397415;26;20468;-70
2024/04/16 12:40:33;;;;;;;4.50;0.97;;;12.90;99.90;;;;;;5396402;26;20581;-70
2024/04/16 12:42:59;;;;;;;1.17;0.77;;;13.10;99.90;;;;;;5382485;26;20243;-69
2024/04/16 12:45:28;;;;;;;1.20;1.00;;;13.10;99.90;;;;;;5381849;26;20450;-70
2024/04/16 12:47:54;;;;;;;1.27;0.90;;;12.80;99.90;;;;;;5395864;26;20623;-69
2024/04/16 12:50:25;;;;;;;1.10;1.00;;;12.80;99.90;;;;;;5386717;26;20615;-70
2024/04/16 12:52:51;;;;;;;2.10;1.30;;;12.60;99.90;;;;;;5397341;26;20497;-70
2024/04/16 12:55:20;;;;;;;1.30;1.20;;;13.00;99.90;;;;;;5401576;26;20505;-71
2024/04/16 12:57:46;;;;;;;1.53;1.10;;;13.50;99.90;;;;;;5395110;26;20306;-70
2024/04/16 13:00:14;;;;;;;1.10;0.90;;;13.70;99.90;;;;;;5388908;26;20469;-70